Terminal Aerodrome Forecast
Issued by NWS

Home | Current Version | Previous Version | Text Only | Print | Product List | Glossary On
Versions: 1 2 3 4 5 6 7 8 9 10 11 12 13
000
FTUS45 KVEF 300500
TAFBIH
TAF
KBIH 300520Z 3006/3106 19008KT P6SM SCT150 BKN200
     FM300800 33008KT P6SM SCT150 BKN200
     FM302100 29014G24KT P6SM SCT250
     FM310200 34011KT P6SM SCT250=

USA.gov is the U.S. government's official web portal to all federal, state and local government web resources and services.